Time;durP1;ratioP1;P1;durP2;ratioP2;P2;SDS_P1;SDS_P2;PMS_P1;PMS_P2;Temp;Humidity;BMP_temperature;BMP_pressure;BME280_temperature;BME280_humidity;BME280_pressure;Samples;Min_cycle;Max_cycle;Signal;HPM_P1;HPM_P2
2021/12/10 00:00:58;;;;;;;50.25;26.45;;;4.40;99.90;;;;;;5035739;28;20083;-88
2021/12/10 00:03:35;;;;;;;47.65;24.83;;;4.40;99.90;;;;;;5056724;28;20064;-87
2021/12/10 00:06:03;;;;;;;49.28;24.30;;;4.40;99.90;;;;;;5063706;28;20048;-88
2021/12/10 00:08:32;;;;;;;45.97;24.58;;;4.40;99.90;;;;;;5036409;28;20064;-88
2021/12/10 00:11:01;;;;;;;45.58;23.73;;;4.40;99.90;;;;;;5036888;28;20493;-88
2021/12/10 00:13:27;;;;;;;43.28;23.23;;;4.40;99.90;;;;;;5047947;28;20422;-88
2021/12/10 00:15:55;;;;;;;43.15;22.98;;;4.40;99.90;;;;;;5054974;28;20076;-87
2021/12/10 00:18:24;;;;;;;50.63;24.15;;;4.40;99.90;;;;;;5042543;28;20051;-88
2021/12/10 00:20:57;;;;;;;43.67;23.60;;;4.40;99.90;;;;;;5042769;28;20032;-89
2021/12/10 00:23:23;;;;;;;40.05;22.52;;;4.40;99.90;;;;;;5046395;28;20049;-87
2021/12/10 00:25:51;;;;;;;49.40;21.50;;;4.40;99.90;;;;;;5039466;28;20103;-88
2021/12/10 00:28:23;;;;;;;39.83;21.02;;;4.40;99.90;;;;;;5041682;28;20032;-86
2021/12/10 00:34:07;;;;;;;39.92;19.88;;;4.90;99.90;;;;;;5057879;28;20054;-88
2021/12/10 00:36:36;;;;;;;41.72;21.75;;;4.40;99.90;;;;;;5055186;28;20101;-88
2021/12/10 00:39:05;;;;;;;40.15;20.70;;;4.40;99.90;;;;;;5043693;28;20127;-87
2021/12/10 00:41:31;;;;;;;46.13;20.88;;;4.40;99.90;;;;;;5042787;28;20045;-87
2021/12/10 00:43:56;;;;;;;34.47;19.65;;;4.40;99.90;;;;;;5040436;28;20041;-87
2021/12/10 00:46:22;;;;;;;39.45;19.70;;;4.40;99.90;;;;;;5035000;28;20188;-88
2021/12/10 00:48:48;;;;;;;40.72;20.35;;;4.40;99.90;;;;;;5048113;28;20533;-87
2021/12/10 00:51:14;;;;;;;46.60;20.83;;;4.50;99.90;;;;;;5064271;28;20528;-86
2021/12/10 00:53:41;;;;;;;35.85;20.08;;;4.40;99.90;;;;;;5043386;28;20102;-87
2021/12/10 00:56:08;;;;;;;37.63;20.08;;;4.50;99.90;;;;;;5041367;28;20041;-86
2021/12/10 00:58:35;;;;;;;38.72;20.40;;;5.10;99.90;;;;;;5066344;28;20060;-87
2021/12/10 01:01:05;;;;;;;42.55;20.80;;;5.10;99.90;;;;;;5056283;28;20052;-88
2021/12/10 01:03:37;;;;;;;36.23;20.33;;;4.50;99.90;;;;;;5042221;28;20707;-87
2021/12/10 01:06:06;;;;;;;36.65;19.83;;;4.50;99.90;;;;;;5065498;28;20309;-87
2021/12/10 01:08:33;;;;;;;38.88;19.58;;;4.50;99.90;;;;;;5038610;28;20271;-87
2021/12/10 01:11:07;;;;;;;34.65;19.08;;;4.50;99.90;;;;;;5045494;28;20040;-88
2021/12/10 01:13:36;;;;;;;31.00;18.70;;;4.40;99.90;;;;;;5043475;28;20099;-86
2021/12/10 01:24:52;;;;;;;42.95;20.27;;;4.40;99.90;;;;;;5072362;28;20135;-88
2021/12/10 01:27:32;;;;;;;39.85;19.27;;;4.40;99.90;;;;;;5071275;28;20048;-88
2021/12/10 01:30:03;;;;;;;39.70;21.52;;;4.40;99.90;;;;;;5063808;28;20080;-88
2021/12/10 01:32:34;;;;;;;41.15;18.73;;;4.40;99.90;;;;;;5043593;28;20052;-88
2021/12/10 01:35:00;;;;;;;33.88;18.27;;;4.40;99.90;;;;;;5056344;28;20115;-87
2021/12/10 01:37:26;;;;;;;28.50;17.30;;;4.40;99.90;;;;;;5055606;28;20041;-88
2021/12/10 01:39:54;;;;;;;37.65;17.48;;;4.30;99.90;;;;;;5038507;28;20485;-87
2021/12/10 01:44:54;;;;;;;33.05;17.52;;;4.20;99.90;;;;;;5058138;28;20044;-89
2021/12/10 01:47:24;;;;;;;37.60;17.13;;;4.20;99.90;;;;;;5042670;28;20059;-86
2021/12/10 01:49:51;;;;;;;34.75;17.35;;;4.10;99.90;;;;;;5042225;28;20448;-87
2021/12/10 01:52:18;;;;;;;38.83;17.30;;;4.10;99.90;;;;;;5054476;28;20497;-87
2021/12/10 01:54:48;;;;;;;35.13;16.63;;;4.00;99.90;;;;;;5044210;28;20311;-87
2021/12/10 01:57:16;;;;;;;32.90;16.67;;;4.00;99.90;;;;;;5054607;28;20086;-87
2021/12/10 01:59:45;;;;;;;43.60;18.23;;;3.90;99.90;;;;;;5043560;28;20048;-88
2021/12/10 02:02:17;;;;;;;36.05;19.05;;;3.90;99.90;;;;;;5043947;28;20060;-86
2021/12/10 02:04:44;;;;;;;37.15;18.77;;;3.80;99.90;;;;;;5078419;28;20052;-87
2021/12/10 02:07:12;;;;;;;41.03;18.48;;;3.80;99.90;;;;;;5036540;28;20128;-88
2021/12/10 02:09:38;;;;;;;31.17;17.77;;;3.80;99.90;;;;;;5055439;28;20043;-87
2021/12/10 02:12:05;;;;;;;40.28;17.90;;;3.80;99.90;;;;;;5060739;28;20048;-87
2021/12/10 02:14:31;;;;;;;43.88;18.40;;;3.80;99.90;;;;;;5057711;28;20036;-87
2021/12/10 02:16:58;;;;;;;43.10;17.40;;;3.80;99.90;;;;;;5042404;28;20049;-87
2021/12/10 02:19:25;;;;;;;33.25;17.65;;;3.80;99.90;;;;;;5041778;28;20459;-87
2021/12/10 02:21:51;;;;;;;30.38;15.77;;;3.80;99.90;;;;;;5046666;28;20083;-89
2021/12/10 02:24:18;;;;;;;32.67;16.05;;;3.80;99.90;;;;;;5054838;28;20082;-86
2021/12/10 02:26:51;;;;;;;38.80;15.52;;;3.90;99.90;;;;;;5042603;28;20040;-87
2021/12/10 02:29:20;;;;;;;30.50;14.77;;;3.90;99.90;;;;;;5040981;28;20134;-87
2021/12/10 02:31:46;;;;;;;31.75;14.80;;;4.50;99.90;;;;;;5042681;28;20119;-87
2021/12/10 02:34:12;;;;;;;38.15;15.45;;;3.90;99.90;;;;;;5043293;28;20819;-86
2021/12/10 02:36:42;;;;;;;27.38;13.80;;;3.90;99.90;;;;;;5059043;28;20152;-88
2021/12/10 02:39:10;;;;;;;28.63;13.35;;;4.00;99.90;;;;;;5039578;28;20397;-88
2021/12/10 02:41:36;;;;;;;25.27;13.32;;;3.90;99.90;;;;;;5054134;28;20107;-87
2021/12/10 02:44:04;;;;;;;28.95;13.55;;;4.00;99.90;;;;;;5060342;28;20037;-88
2021/12/10 02:46:30;;;;;;;29.95;14.15;;;4.00;99.90;;;;;;5061748;28;20123;-87
2021/12/10 02:48:56;;;;;;;27.98;13.70;;;4.00;99.90;;;;;;5054446;28;20537;-88
2021/12/10 02:51:23;;;;;;;26.92;13.98;;;4.00;99.90;;;;;;5038832;28;20044;-86
2021/12/10 02:53:49;;;;;;;32.15;13.65;;;4.00;99.90;;;;;;5040675;28;20711;-87
2021/12/10 02:56:18;;;;;;;27.83;13.52;;;4.00;99.90;;;;;;5043137;28;20055;-87
2021/12/10 02:58:47;;;;;;;24.48;13.88;;;4.00;99.90;;;;;;5061353;28;20048;-86
2021/12/10 03:01:20;;;;;;;34.30;14.93;;;4.00;99.90;;;;;;5057635;28;20109;-87
2021/12/10 03:03:46;;;;;;;31.70;13.00;;;4.10;99.90;;;;;;5044630;28;20036;-88
2021/12/10 03:06:15;;;;;;;24.95;14.00;;;4.00;99.90;;;;;;5042583;28;20377;-87
2021/12/10 03:08:45;;;;;;;27.95;13.80;;;4.10;99.90;;;;;;5042438;28;20055;-88
2021/12/10 03:11:12;;;;;;;28.27;13.70;;;4.10;99.90;;;;;;5065499;28;20512;-86
2021/12/10 03:13:38;;;;;;;29.92;13.60;;;4.00;99.90;;;;;;5064318;28;20051;-89
2021/12/10 03:16:06;;;;;;;27.77;13.85;;;4.10;99.90;;;;;;5046132;28;20044;-87
2021/12/10 03:18:33;;;;;;;31.15;14.00;;;4.10;99.90;;;;;;5042781;28;20036;-86
2021/12/10 03:20:59;;;;;;;32.65;15.85;;;4.10;99.90;;;;;;5041351;28;20056;-86
2021/12/10 03:23:25;;;;;;;33.65;14.70;;;4.10;99.90;;;;;;5047446;28;20082;-86
2021/12/10 03:25:51;;;;;;;32.67;14.63;;;4.10;99.90;;;;;;5046627;28;20047;-87
2021/12/10 03:28:16;;;;;;;28.17;15.00;;;4.10;99.90;;;;;;5046706;28;20040;-87
2021/12/10 03:30:53;;;;;;;27.25;14.00;;;4.10;99.90;;;;;;5052346;28;20044;-89
2021/12/10 03:33:19;;;;;;;33.22;15.02;;;4.10;99.90;;;;;;5051170;28;20099;-87
2021/12/10 03:35:47;;;;;;;36.67;15.20;;;4.70;99.90;;;;;;5058386;28;20048;-87
2021/12/10 03:38:20;;;;;;;34.90;15.10;;;4.10;99.90;;;;;;5053077;28;20934;-87
2021/12/10 03:40:46;;;;;;;26.85;13.85;;;4.10;99.90;;;;;;5037426;28;20040;-86
2021/12/10 03:43:13;;;;;;;29.90;14.23;;;4.10;99.90;;;;;;5063393;28;20047;-85
2021/12/10 03:45:44;;;;;;;28.85;15.65;;;4.40;99.90;;;;;;5050463;28;20048;-86
2021/12/10 03:48:14;;;;;;;34.13;14.32;;;4.10;99.90;;;;;;5072048;28;20051;-87
2021/12/10 03:50:41;;;;;;;35.30;14.57;;;4.10;99.90;;;;;;5053872;28;20052;-89
2021/12/10 03:53:07;;;;;;;33.92;15.57;;;4.10;99.90;;;;;;5057904;28;20048;-85
2021/12/10 03:55:34;;;;;;;31.27;14.27;;;4.00;99.90;;;;;;5048085;28;20052;-85
2021/12/10 03:58:00;;;;;;;28.23;13.43;;;4.10;99.90;;;;;;5054208;28;20113;-85
2021/12/10 04:00:30;;;;;;;26.38;13.70;;;4.80;99.90;;;;;;5063700;28;20515;-85
2021/12/10 04:02:58;;;;;;;31.52;14.05;;;4.00;99.90;;;;;;5069981;28;20040;-84
2021/12/10 04:05:24;;;;;;;32.17;14.20;;;4.00;99.90;;;;;;5044960;28;20743;-85
2021/12/10 04:07:50;;;;;;;22.45;13.40;;;4.00;99.90;;;;;;5042929;28;20077;-84
2021/12/10 04:10:17;;;;;;;34.17;14.25;;;4.00;99.90;;;;;;5063330;28;20047;-84
2021/12/10 04:12:43;;;;;;;28.80;13.18;;;5.00;99.90;;;;;;5052452;28;20040;-85
2021/12/10 04:15:10;;;;;;;30.95;13.48;;;4.00;99.90;;;;;;5062688;28;20043;-85
2021/12/10 04:17:38;;;;;;;22.75;13.82;;;4.00;99.90;;;;;;5069224;28;20527;-86
2021/12/10 04:20:07;;;;;;;33.42;14.05;;;4.00;99.90;;;;;;5045388;28;20400;-86
2021/12/10 04:22:33;;;;;;;24.90;12.82;;;4.00;99.90;;;;;;5066122;28;20047;-85
2021/12/10 04:25:06;;;;;;;25.80;13.40;;;3.90;99.90;;;;;;5057702;28;20118;-85
2021/12/10 04:27:32;;;;;;;27.48;14.05;;;3.90;99.90;;;;;;5049014;28;20327;-85
2021/12/10 04:29:59;;;;;;;30.55;14.93;;;3.90;99.90;;;;;;5062609;28;20129;-87
2021/12/10 04:32:27;;;;;;;23.77;14.05;;;3.90;99.90;;;;;;5046709;28;20040;-88
2021/12/10 04:34:53;;;;;;;36.50;14.95;;;3.90;99.90;;;;;;5050262;28;20051;-86
2021/12/10 04:37:20;;;;;;;27.05;13.85;;;3.80;99.90;;;;;;5045404;28;20039;-85
2021/12/10 04:39:48;;;;;;;27.63;14.05;;;3.80;99.90;;;;;;5045128;28;20040;-85
2021/12/10 04:42:20;;;;;;;29.38;15.95;;;4.10;99.90;;;;;;5061116;28;20048;-87
2021/12/10 04:44:46;;;;;;;30.63;15.98;;;4.20;99.90;;;;;;5042356;28;20370;-86
2021/12/10 04:47:12;;;;;;;34.78;16.40;;;3.80;99.90;;;;;;5046036;28;20051;-85
2021/12/10 04:49:38;;;;;;;30.42;16.52;;;3.80;99.90;;;;;;5060311;28;20321;-86
2021/12/10 04:52:05;;;;;;;31.17;15.68;;;3.70;99.90;;;;;;5044109;28;20048;-85
2021/12/10 04:54:32;;;;;;;34.60;15.25;;;3.60;99.90;;;;;;5060866;28;20520;-86
2021/12/10 04:56:59;;;;;;;31.08;15.18;;;3.60;99.90;;;;;;5048729;28;20032;-85
2021/12/10 04:59:27;;;;;;;25.27;13.95;;;3.50;99.90;;;;;;5062530;28;20072;-84
2021/12/10 05:01:56;;;;;;;23.63;14.75;;;3.50;99.90;;;;;;5067612;28;20127;-86
2021/12/10 05:04:23;;;;;;;27.30;14.93;;;3.40;99.90;;;;;;5062480;28;20462;-85
2021/12/10 05:06:49;;;;;;;23.50;13.63;;;3.40;99.90;;;;;;5046795;28;20052;-84
2021/12/10 05:09:15;;;;;;;27.88;15.32;;;3.30;99.90;;;;;;5044126;28;20046;-86
2021/12/10 05:11:42;;;;;;;31.33;15.52;;;3.30;99.90;;;;;;5051377;28;20441;-85
2021/12/10 05:14:09;;;;;;;30.05;16.08;;;3.20;99.90;;;;;;5069757;28;20039;-87
2021/12/10 05:16:41;;;;;;;35.63;16.70;;;3.20;99.90;;;;;;5053886;28;20040;-85
2021/12/10 05:19:08;;;;;;;27.27;15.88;;;3.10;99.90;;;;;;5059772;28;20036;-85
2021/12/10 05:21:36;;;;;;;26.58;16.70;;;3.10;99.90;;;;;;5058926;28;20056;-84
2021/12/10 05:24:04;;;;;;;32.53;17.60;;;3.10;99.90;;;;;;5051975;28;20051;-86
2021/12/10 05:26:31;;;;;;;30.02;17.50;;;3.00;99.90;;;;;;5059357;28;20047;-87
2021/12/10 05:28:57;;;;;;;29.35;18.20;;;3.90;99.90;;;;;;5038266;28;20079;-86
2021/12/10 05:31:23;;;;;;;32.58;17.70;;;3.40;99.90;;;;;;5044930;28;20102;-85
2021/12/10 05:33:49;;;;;;;31.63;18.40;;;2.90;99.90;;;;;;5067478;28;20459;-86
2021/12/10 05:36:15;;;;;;;32.08;18.23;;;2.90;99.90;;;;;;5042801;28;20048;-85
2021/12/10 05:38:40;;;;;;;32.45;18.63;;;2.90;99.90;;;;;;5061338;28;20041;-85
2021/12/10 05:41:09;;;;;;;37.70;19.60;;;2.90;99.90;;;;;;5037726;28;20023;-84
2021/12/10 05:43:37;;;;;;;38.30;20.15;;;2.90;99.90;;;;;;5051243;28;20052;-85
2021/12/10 05:46:03;;;;;;;34.22;18.75;;;3.00;99.90;;;;;;5058215;28;20119;-86
2021/12/10 05:48:30;;;;;;;37.95;20.90;;;3.50;99.90;;;;;;5042599;28;20056;-85
2021/12/10 05:50:56;;;;;;;35.08;20.42;;;2.90;99.90;;;;;;5060579;28;20059;-85
2021/12/10 05:53:23;;;;;;;32.65;18.63;;;2.90;99.90;;;;;;5048217;28;20037;-85
2021/12/10 05:55:50;;;;;;;33.67;19.70;;;3.00;99.90;;;;;;5037474;28;20047;-85
2021/12/10 05:58:16;;;;;;;34.60;20.17;;;2.90;99.90;;;;;;5031754;28;20041;-84
2021/12/10 06:00:46;;;;;;;33.05;19.38;;;2.90;99.90;;;;;;5065600;28;20050;-84
2021/12/10 06:03:12;;;;;;;36.67;20.10;;;2.80;99.90;;;;;;5039664;28;20521;-84
2021/12/10 06:05:38;;;;;;;31.95;19.55;;;2.80;99.90;;;;;;5056284;28;20043;-85
2021/12/10 06:08:05;;;;;;;36.75;20.10;;;2.80;99.90;;;;;;5054542;28;20044;-84
2021/12/10 06:10:31;;;;;;;37.50;19.77;;;2.80;99.90;;;;;;5037711;28;20044;-85
2021/12/10 06:12:57;;;;;;;34.35;19.55;;;2.70;99.90;;;;;;5056153;28;20575;-84
2021/12/10 06:15:25;;;;;;;35.28;19.85;;;2.70;99.90;;;;;;5061752;28;20136;-84
2021/12/10 06:17:51;;;;;;;38.03;19.90;;;2.70;99.90;;;;;;5043275;28;20504;-85
2021/12/10 06:20:22;;;;;;;35.50;19.20;;;2.70;99.90;;;;;;5041215;28;20036;-84
2021/12/10 06:22:47;;;;;;;37.63;20.77;;;2.70;99.90;;;;;;5049639;28;20079;-84
2021/12/10 06:25:14;;;;;;;33.38;20.60;;;2.60;99.90;;;;;;5055925;28;20449;-85
2021/12/10 06:27:44;;;;;;;40.08;20.23;;;2.60;99.90;;;;;;5042204;28;20133;-85
2021/12/10 06:30:15;;;;;;;36.00;21.00;;;2.50;99.90;;;;;;5053448;28;20041;-84
2021/12/10 06:32:41;;;;;;;37.65;18.85;;;2.60;99.90;;;;;;5037344;28;20044;-83
2021/12/10 06:35:08;;;;;;;32.33;18.73;;;2.60;99.90;;;;;;5039393;28;20043;-84
2021/12/10 06:37:35;;;;;;;34.88;20.80;;;2.60;99.90;;;;;;5047656;28;20097;-84
2021/12/10 06:40:03;;;;;;;36.47;20.67;;;2.70;99.90;;;;;;5045739;28;20047;-86
2021/12/10 06:42:29;;;;;;;38.75;19.45;;;2.60;99.90;;;;;;5064273;28;20450;-84
2021/12/10 06:44:55;;;;;;;34.78;19.20;;;2.50;99.90;;;;;;5066847;28;20044;-84
2021/12/10 06:47:20;;;;;;;32.05;19.85;;;2.50;99.90;;;;;;5054396;28;20133;-85
2021/12/10 06:49:46;;;;;;;31.85;20.80;;;2.50;99.90;;;;;;5058414;28;20136;-84
2021/12/10 06:52:14;;;;;;;32.20;19.10;;;2.50;99.90;;;;;;5061172;28;20040;-85
2021/12/10 06:54:40;;;;;;;32.05;19.33;;;2.50;99.90;;;;;;5061734;28;20036;-84
2021/12/10 06:57:06;;;;;;;32.75;18.95;;;2.50;99.90;;;;;;5059328;28;20055;-86
2021/12/10 06:59:31;;;;;;;33.13;18.15;;;2.40;99.90;;;;;;5046764;28;20045;-85
2021/12/10 07:02:13;;;;;;;30.58;18.92;;;2.20;99.90;;;;;;5041849;28;20128;-84
2021/12/10 07:04:44;;;;;;;34.70;18.25;;;1.90;99.90;;;;;;5038409;28;20044;-83
2021/12/10 07:08:18;;;;;;;31.58;17.30;;;2.30;99.90;;;;;;5023728;28;20046;-84
2021/12/10 07:10:56;;;;;;;31.98;17.33;;;2.20;99.90;;;;;;4949710;28;20057;-85
2021/12/10 07:13:31;;;;;;;27.63;17.42;;;3.00;99.90;;;;;;4932823;28;20058;-84
2021/12/10 07:16:06;;;;;;;26.55;16.55;;;1.20;99.90;;;;;;4946569;28;20097;-85
2021/12/10 07:18:47;;;;;;;30.13;16.35;;;2.20;99.90;;;;;;4960347;28;20144;-84
2021/12/10 07:21:22;;;;;;;30.77;17.95;;;2.10;99.90;;;;;;5014485;28;20049;-85
2021/12/10 07:23:52;;;;;;;29.08;16.50;;;2.00;99.90;;;;;;5035832;28;20045;-84
2021/12/10 07:26:27;;;;;;;27.77;16.42;;;1.50;99.90;;;;;;5015269;28;20146;-84
2021/12/10 07:28:53;;;;;;;29.00;15.52;;;2.10;99.90;;;;;;5016812;28;20056;-83
2021/12/10 07:31:19;;;;;;;32.83;15.80;;;3.30;99.90;;;;;;5003543;28;20052;-83
2021/12/10 07:33:45;;;;;;;27.63;16.23;;;2.00;99.90;;;;;;5010020;28;20051;-84
2021/12/10 07:36:12;;;;;;;29.65;15.35;;;2.00;99.90;;;;;;5009821;28;20047;-84
2021/12/10 07:38:38;;;;;;;25.98;15.25;;;2.00;99.90;;;;;;5031037;28;20144;-84
2021/12/10 07:41:06;;;;;;;27.08;14.88;;;2.00;99.90;;;;;;5068140;28;20078;-84
2021/12/10 07:43:32;;;;;;;25.15;14.13;;;1.90;99.90;;;;;;5050823;28;20051;-84
2021/12/10 07:46:01;;;;;;;29.90;14.75;;;2.00;99.90;;;;;;5041763;28;20184;-84
2021/12/10 07:48:28;;;;;;;21.33;13.02;;;1.90;99.90;;;;;;5038794;28;20431;-84
2021/12/10 07:50:59;;;;;;;23.45;14.55;;;1.90;99.90;;;;;;5041868;28;20056;-84
2021/12/10 07:53:26;;;;;;;;;;;1.90;99.90;;;;;;5036986;28;20087;-85
2021/12/10 07:55:53;;;;;;;26.13;14.10;;;1.90;99.90;;;;;;5045916;28;19994;-85
2021/12/10 07:58:18;;;;;;;22.27;13.35;;;1.90;99.90;;;;;;5044925;28;20521;-84
2021/12/10 08:00:47;;;;;;;27.48;13.40;;;1.90;99.90;;;;;;5047740;28;20037;-84
2021/12/10 08:03:13;;;;;;;27.52;13.52;;;2.90;99.90;;;;;;5063302;28;20051;-84
2021/12/10 08:05:40;;;;;;;22.80;12.45;;;1.90;99.90;;;;;;5045751;28;20044;-84
2021/12/10 08:08:07;;;;;;;27.48;13.27;;;1.90;99.90;;;;;;5057114;28;20040;-85
2021/12/10 08:10:33;;;;;;;24.25;11.77;;;1.90;99.90;;;;;;5047968;28;20619;-84
2021/12/10 08:12:59;;;;;;;19.10;11.63;;;1.90;99.90;;;;;;5049049;28;20048;-85
2021/12/10 08:15:25;;;;;;;21.05;11.43;;;1.90;99.90;;;;;;5047666;28;20288;-85
2021/12/10 08:17:51;;;;;;;22.73;12.35;;;1.90;99.90;;;;;;5047564;28;20582;-84
2021/12/10 08:20:21;;;;;;;22.08;12.52;;;1.90;99.90;;;;;;5038734;28;20048;-85
2021/12/10 08:22:48;;;;;;;23.33;12.30;;;1.90;99.90;;;;;;5039806;28;20590;-86
2021/12/10 08:25:14;;;;;;;21.42;12.13;;;1.90;99.90;;;;;;5039278;28;20041;-85
2021/12/10 08:27:41;;;;;;;20.58;11.73;;;1.90;99.90;;;;;;5037054;28;20044;-84
2021/12/10 08:30:11;;;;;;;23.45;10.60;;;2.00;99.90;;;;;;5055335;28;20048;-84
2021/12/10 08:32:38;;;;;;;20.20;11.02;;;2.00;99.90;;;;;;5086951;27;20071;-84
2021/12/10 08:35:07;;;;;;;23.48;10.98;;;2.00;99.90;;;;;;5042549;28;20052;-84
2021/12/10 08:37:32;;;;;;;26.38;12.35;;;2.00;99.90;;;;;;5046233;28;20055;-84
2021/12/10 08:39:58;;;;;;;22.65;11.70;;;2.00;99.90;;;;;;5060871;28;20044;-85
2021/12/10 08:42:25;;;;;;;18.33;10.95;;;2.00;99.90;;;;;;5060636;28;20046;-84
2021/12/10 08:44:51;;;;;;;19.05;11.13;;;2.00;99.90;;;;;;5042180;28;20563;-85
2021/12/10 08:47:17;;;;;;;19.75;11.18;;;2.00;99.90;;;;;;5036902;28;20041;-85
2021/12/10 08:49:45;;;;;;;25.50;12.43;;;2.00;99.90;;;;;;5048171;28;20079;-85
2021/12/10 08:52:19;;;;;;;21.48;11.10;;;2.80;99.90;;;;;;5047920;28;20212;-84
2021/12/10 08:55:03;;;;;;;18.52;10.48;;;2.10;99.90;;;;;;5067582;28;20051;-84
2021/12/10 08:57:36;;;;;;;21.02;11.00;;;3.00;99.90;;;;;;5065075;28;20056;-84
2021/12/10 09:00:12;;;;;;;22.00;11.60;;;3.30;99.90;;;;;;5065642;28;20047;-84
2021/12/10 09:02:47;;;;;;;21.05;10.80;;;2.10;99.90;;;;;;5057200;28;20035;-84
2021/12/10 09:05:22;;;;;;;20.05;11.45;;;2.10;99.90;;;;;;5065748;28;20050;-84
2021/12/10 09:07:53;;;;;;;18.75;9.90;;;2.90;99.90;;;;;;5048433;28;20593;-84
2021/12/10 09:10:46;;;;;;;18.42;10.05;;;1.70;99.90;;;;;;5059739;28;20075;-84
2021/12/10 09:13:20;;;;;;;23.10;11.23;;;1.60;99.90;;;;;;5045389;28;20463;-84
2021/12/10 09:15:56;;;;;;;18.33;9.82;;;3.70;99.90;;;;;;5047752;28;20086;-84
2021/12/10 09:18:28;;;;;;;20.60;9.55;;;3.00;99.90;;;;;;5060774;28;20056;-84
2021/12/10 09:21:10;;;;;;;19.67;9.75;;;3.20;99.90;;;;;;5063392;28;20104;-83
2021/12/10 09:23:37;;;;;;;21.02;9.65;;;3.00;99.90;;;;;;5039473;28;20052;-83
2021/12/10 09:26:23;;;;;;;17.08;9.48;;;3.40;99.90;;;;;;5049712;28;20553;-83
2021/12/10 09:29:03;;;;;;;17.27;9.45;;;3.80;99.90;;;;;;5048571;28;20063;-84
2021/12/10 09:31:36;;;;;;;18.80;8.93;;;3.80;99.90;;;;;;5048588;28;20093;-84
2021/12/10 09:34:04;;;;;;;18.60;9.15;;;2.80;99.90;;;;;;5043557;28;20501;-84
2021/12/10 09:36:35;;;;;;;17.48;8.27;;;3.90;99.90;;;;;;5062583;28;20040;-83
2021/12/10 09:39:12;;;;;;;15.98;8.35;;;2.80;99.90;;;;;;5062469;28;20130;-85
2021/12/10 09:41:44;;;;;;;16.98;8.52;;;3.30;99.90;;;;;;5048286;28;20051;-83
2021/12/10 09:44:12;;;;;;;;;;;2.90;99.90;;;;;;5047704;28;20044;-84
2021/12/10 09:46:39;;;;;;;18.98;8.52;;;4.40;99.90;;;;;;5046091;28;19930;-84
2021/12/10 09:49:14;;;;;;;23.75;8.82;;;2.90;99.90;;;;;;5047333;28;20058;-84
2021/12/10 09:51:54;;;;;;;16.08;7.28;;;3.10;99.90;;;;;;5044749;28;20048;-84
2021/12/10 09:54:23;;;;;;;15.55;7.88;;;2.90;99.90;;;;;;5046622;28;20042;-84
2021/12/10 09:56:54;;;;;;;13.35;7.22;;;4.20;99.90;;;;;;5065561;28;20070;-84
2021/12/10 09:59:21;;;;;;;18.67;7.32;;;4.20;99.90;;;;;;5057490;22;20062;-86
2021/12/10 10:01:51;;;;;;;15.93;7.35;;;3.20;99.90;;;;;;4982228;28;20221;-85
2021/12/10 10:04:20;;;;;;;14.50;7.50;;;3.40;99.90;;;;;;4981561;28;20519;-85
2021/12/10 10:06:53;;;;;;;12.90;7.13;;;3.50;99.90;;;;;;4985664;28;20457;-85
2021/12/10 10:09:21;;;;;;;12.48;7.45;;;3.50;99.90;;;;;;4981000;28;20251;-85
2021/12/10 10:11:49;;;;;;;14.10;6.43;;;3.60;99.90;;;;;;4975267;28;20046;-86
2021/12/10 10:14:15;;;;;;;11.63;6.57;;;3.60;99.90;;;;;;4993679;28;20073;-89
2021/12/10 10:16:44;;;;;;;14.15;7.05;;;3.70;99.90;;;;;;4978745;28;20406;-85
2021/12/10 10:19:11;;;;;;;13.75;6.68;;;3.70;99.90;;;;;;4980485;28;20069;-86
2021/12/10 10:21:42;;;;;;;12.95;6.50;;;3.80;99.90;;;;;;4985409;28;20096;-86
2021/12/10 10:24:09;;;;;;;14.45;6.47;;;3.80;99.90;;;;;;5000636;28;20078;-85
2021/12/10 10:26:43;;;;;;;10.88;6.18;;;3.80;99.90;;;;;;5002981;28;20076;-86
2021/12/10 10:29:14;;;;;;;12.50;5.63;;;3.80;99.90;;;;;;5001409;28;20042;-86
2021/12/10 10:31:42;;;;;;;;;;;3.90;99.90;;;;;;4987190;28;20073;-87
2021/12/10 10:34:09;;;;;;;17.08;6.30;;;3.90;99.90;;;;;;4981813;28;20025;-85
2021/12/10 10:36:35;;;;;;;11.88;5.75;;;3.90;99.90;;;;;;4978803;28;20044;-86
2021/12/10 10:39:24;;;;;;;11.35;5.55;;;4.00;99.90;;;;;;4978507;28;20057;-86
2021/12/10 10:41:54;;;;;;;14.23;5.75;;;4.00;99.90;;;;;;4981043;28;20038;-86
2021/12/10 10:44:20;;;;;;;13.88;5.90;;;4.00;99.90;;;;;;4979506;28;20057;-86
2021/12/10 10:46:47;;;;;;;12.40;5.55;;;4.00;99.90;;;;;;4968649;28;20700;-86
2021/12/10 10:49:35;;;;;;;14.73;5.63;;;4.00;99.90;;;;;;4971688;28;20071;-86
2021/12/10 10:52:21;;;;;;;14.38;4.97;;;4.10;99.90;;;;;;4980109;28;20432;-86
2021/12/10 10:54:50;;;;;;;12.32;5.50;;;4.10;99.90;;;;;;4977298;28;20518;-85
2021/12/10 10:57:25;;;;;;;13.93;5.82;;;4.10;99.90;;;;;;4983676;28;20049;-86
2021/12/10 10:59:57;;;;;;;14.50;5.45;;;4.10;99.90;;;;;;4979395;28;20427;-86
2021/12/10 11:02:25;;;;;;;11.38;5.72;;;4.20;99.90;;;;;;4978071;28;20077;-86
2021/12/10 11:04:52;;;;;;;9.93;5.00;;;4.20;99.90;;;;;;4979045;28;20065;-86
2021/12/10 11:07:26;;;;;;;11.98;4.65;;;4.20;99.90;;;;;;4998595;28;20152;-86
2021/12/10 11:10:02;;;;;;;10.65;4.55;;;4.20;99.90;;;;;;4997024;28;20069;-85
2021/12/10 11:12:41;;;;;;;9.75;5.10;;;4.30;99.90;;;;;;4976412;28;20049;-85
2021/12/10 11:15:14;;;;;;;11.48;4.90;;;4.30;99.90;;;;;;4981638;28;20045;-86
2021/12/10 11:17:46;;;;;;;11.98;5.07;;;4.30;99.90;;;;;;4991963;28;20466;-86
2021/12/10 11:20:15;;;;;;;11.63;4.82;;;4.30;99.90;;;;;;4979929;28;20521;-86
2021/12/10 11:22:46;;;;;;;11.43;4.70;;;4.30;99.90;;;;;;4976840;28;20050;-86
2021/12/10 11:25:18;;;;;;;10.18;4.50;;;4.30;99.90;;;;;;4978333;28;20137;-87
2021/12/10 11:27:44;;;;;;;;;;;4.40;99.90;;;;;;4999932;28;20042;-88
2021/12/10 11:30:19;;;;;;;11.57;4.53;;;4.40;99.90;;;;;;4994530;28;19984;-86
2021/12/10 11:32:48;;;;;;;11.63;4.35;;;4.40;99.90;;;;;;4998899;28;20492;-86
2021/12/10 11:35:18;;;;;;;9.95;4.50;;;4.40;99.90;;;;;;4982396;28;20084;-86
2021/12/10 11:37:54;;;;;;;9.67;4.20;;;4.40;99.90;;;;;;4981154;28;20164;-86
2021/12/10 11:40:34;;;;;;;11.75;4.50;;;4.50;99.90;;;;;;4984048;28;20292;-87
2021/12/10 11:47:02;;;;;;;12.57;4.60;;;4.60;99.90;;;;;;5002300;28;20666;-86
2021/12/10 11:49:30;;;;;;;13.73;4.32;;;4.60;99.90;;;;;;4999021;28;20057;-87
2021/12/10 11:52:08;;;;;;;11.80;4.43;;;4.60;99.90;;;;;;5000901;28;20054;-86
2021/12/10 11:54:40;;;;;;;11.05;3.63;;;4.60;99.90;;;;;;4986565;28;20144;-86
2021/12/10 11:57:15;;;;;;;8.90;3.70;;;4.70;99.90;;;;;;5005854;28;20567;-86
2021/12/10 11:59:49;;;;;;;9.55;4.25;;;4.70;99.90;;;;;;4988589;28;20089;-87
2021/12/10 12:02:17;;;;;;;8.13;3.75;;;4.70;99.90;;;;;;4987624;28;20077;-86
2021/12/10 12:04:49;;;;;;;8.82;4.18;;;4.70;99.90;;;;;;5005669;28;20511;-87
2021/12/10 12:07:15;;;;;;;8.32;4.25;;;4.70;99.90;;;;;;4999557;28;20046;-86
2021/12/10 12:09:42;;;;;;;10.77;3.92;;;4.70;99.90;;;;;;5000728;28;20100;-86
2021/12/10 12:12:18;;;;;;;7.15;3.42;;;4.70;99.90;;;;;;4994128;28;20677;-86
2021/12/10 12:14:53;;;;;;;11.75;4.10;;;4.70;99.90;;;;;;4979179;28;20045;-84
2021/12/10 12:17:38;;;;;;;9.50;4.00;;;4.70;99.90;;;;;;4981076;28;20058;-84
2021/12/10 12:20:22;;;;;;;8.38;3.47;;;4.10;99.90;;;;;;4980877;28;20045;-85
2021/12/10 12:26:04;;;;;;;9.98;3.60;;;4.70;99.90;;;;;;4971253;28;20042;-85
2021/12/10 12:28:31;;;;;;;12.20;3.67;;;4.70;99.90;;;;;;4979848;28;20057;-85
2021/12/10 12:31:08;;;;;;;10.98;3.65;;;4.70;99.90;;;;;;4983282;28;20124;-86
2021/12/10 12:33:49;;;;;;;10.60;3.58;;;4.70;99.90;;;;;;4999186;28;20042;-85
2021/12/10 12:36:16;;;;;;;12.20;3.70;;;4.70;99.90;;;;;;4983305;28;20053;-85
2021/12/10 12:38:47;;;;;;;8.23;3.03;;;4.70;99.90;;;;;;4981773;28;20807;-86
2021/12/10 12:41:20;;;;;;;8.32;3.60;;;4.70;99.90;;;;;;4982581;28;20121;-85
2021/12/10 12:43:49;;;;;;;9.45;3.30;;;4.70;99.90;;;;;;4982216;28;20046;-86
2021/12/10 12:46:15;;;;;;;9.20;3.60;;;4.70;99.90;;;;;;4996659;28;20045;-86
2021/12/10 12:49:01;;;;;;;9.05;3.00;;;4.70;99.90;;;;;;4997183;28;20205;-85
2021/12/10 12:51:27;;;;;;;10.48;3.42;;;4.70;99.90;;;;;;4999717;28;20657;-85
2021/12/10 12:53:54;;;;;;;8.55;3.17;;;5.50;99.90;;;;;;4981360;28;20427;-85
2021/12/10 12:56:22;;;;;;;10.57;3.78;;;4.70;99.90;;;;;;4996958;28;20256;-85
2021/12/10 12:59:06;;;;;;;10.05;4.20;;;4.70;99.90;;;;;;4999207;28;20053;-85
2021/12/10 13:01:36;;;;;;;8.77;4.47;;;4.60;99.90;;;;;;4995933;28;20054;-85
2021/12/10 13:04:05;;;;;;;9.95;3.90;;;4.60;99.90;;;;;;4980460;28;21502;-85
2021/12/10 13:06:47;;;;;;;9.23;3.63;;;4.60;99.90;;;;;;4980559;28;20115;-85
2021/12/10 13:09:26;;;;;;;9.52;3.97;;;4.60;99.90;;;;;;4996036;28;20042;-85
2021/12/10 13:14:34;;;;;;;11.43;3.75;;;4.60;99.90;;;;;;4991284;28;20541;-85
2021/12/10 13:17:12;;;;;;;10.73;3.92;;;4.50;99.90;;;;;;4982166;28;20579;-85